Time;durP1;ratioP1;P1;durP2;ratioP2;P2;SDS_P1;SDS_P2;PMS_P1;PMS_P2;Temp;Humidity;BMP_temperature;BMP_pressure;BME280_temperature;BME280_humidity;BME280_pressure;Samples;Min_cycle;Max_cycle;Signal;HPM_P1;HPM_P2
2022/02/16 00:01:09;;;;;;;4.67;3.83;;;1.40;99.90;;;;;;5012490;28;20076;-87
2022/02/16 00:03:34;;;;;;;5.47;3.70;;;1.30;99.90;;;;;;5012057;28;20105;-86
2022/02/16 00:06:00;;;;;;;5.03;3.80;;;1.30;99.90;;;;;;5011623;28;20427;-85
2022/02/16 00:08:26;;;;;;;7.07;3.90;;;1.30;99.90;;;;;;4993802;28;20030;-85
2022/02/16 00:10:52;;;;;;;4.70;3.23;;;1.30;99.90;;;;;;5011976;28;20022;-86
2022/02/16 00:13:17;;;;;;;5.43;3.30;;;1.30;99.90;;;;;;5011789;28;20026;-85
2022/02/16 00:15:43;;;;;;;5.10;3.77;;;1.30;99.90;;;;;;5011353;28;20026;-85
2022/02/16 00:18:09;;;;;;;6.23;3.70;;;1.30;99.90;;;;;;5011791;28;20493;-86
2022/02/16 00:20:35;;;;;;;6.80;3.57;;;1.30;99.90;;;;;;5011585;28;20026;-85
2022/02/16 00:23:02;;;;;;;5.83;3.00;;;1.30;99.90;;;;;;5011845;28;20045;-86
2022/02/16 00:25:27;;;;;;;4.67;2.67;;;1.30;99.90;;;;;;5011934;28;20049;-86
2022/02/16 00:27:53;;;;;;;5.47;2.90;;;1.30;99.90;;;;;;5011249;28;20026;-86
2022/02/16 00:30:19;;;;;;;4.73;2.63;;;1.30;99.90;;;;;;5012160;28;20467;-86
2022/02/16 00:32:44;;;;;;;2.97;2.30;;;1.40;99.90;;;;;;4994023;28;20455;-86
2022/02/16 00:35:10;;;;;;;3.77;2.53;;;1.40;99.90;;;;;;5011842;28;20051;-86
2022/02/16 00:37:35;;;;;;;3.60;2.10;;;1.40;99.90;;;;;;5011774;28;20041;-86
2022/02/16 00:40:02;;;;;;;4.43;2.17;;;1.40;99.90;;;;;;5011744;28;20045;-86
2022/02/16 00:42:28;;;;;;;4.80;2.80;;;1.40;99.90;;;;;;4994004;28;20062;-86
2022/02/16 00:44:53;;;;;;;4.23;2.00;;;1.40;99.90;;;;;;5011787;28;20446;-86
2022/02/16 00:47:19;;;;;;;2.87;1.80;;;1.40;99.90;;;;;;5001861;28;20093;-86
2022/02/16 00:49:44;;;;;;;2.43;1.63;;;1.40;99.90;;;;;;5011764;28;20029;-86
2022/02/16 00:52:10;;;;;;;2.80;1.97;;;1.40;99.90;;;;;;5011844;28;20038;-85
2022/02/16 00:54:37;;;;;;;3.50;2.10;;;1.40;99.90;;;;;;5011496;28;20065;-86
2022/02/16 00:57:03;;;;;;;4.77;2.63;;;1.40;99.90;;;;;;5011701;28;20645;-86
2022/02/16 00:59:29;;;;;;;2.00;1.63;;;1.40;99.90;;;;;;5011229;28;20033;-86
2022/02/16 01:01:55;;;;;;;3.40;1.70;;;1.40;99.90;;;;;;5011632;28;20153;-86
2022/02/16 01:04:21;;;;;;;5.17;1.70;;;1.40;99.90;;;;;;5011292;28;20121;-86
2022/02/16 01:06:47;;;;;;;3.20;1.83;;;1.50;99.90;;;;;;5013887;28;20026;-87
2022/02/16 01:09:13;;;;;;;2.07;1.50;;;1.50;99.90;;;;;;4996225;28;20459;-86
2022/02/16 01:11:38;;;;;;;2.17;1.43;;;1.50;99.90;;;;;;5014644;28;20061;-86
2022/02/16 01:14:04;;;;;;;3.23;1.40;;;1.50;99.90;;;;;;4997384;28;20124;-86
2022/02/16 01:16:29;;;;;;;2.47;1.50;;;1.60;99.90;;;;;;4995309;28;20425;-86
2022/02/16 01:18:55;;;;;;;2.57;1.33;;;1.70;99.90;;;;;;4995186;28;20072;-86
2022/02/16 01:21:20;;;;;;;2.20;1.33;;;1.80;99.90;;;;;;5010940;28;20111;-86
2022/02/16 01:23:46;;;;;;;3.97;1.00;;;1.80;99.90;;;;;;5014245;28;20033;-86
2022/02/16 01:26:12;;;;;;;3.20;1.10;;;1.80;99.90;;;;;;5014475;28;20478;-86
2022/02/16 01:28:38;;;;;;;3.17;1.60;;;1.80;99.90;;;;;;4996929;28;20030;-86
2022/02/16 01:31:03;;;;;;;3.00;1.20;;;1.80;99.90;;;;;;5014496;28;20101;-86
2022/02/16 01:33:29;;;;;;;3.73;1.40;;;1.80;99.90;;;;;;4999008;28;20065;-87
2022/02/16 01:35:55;;;;;;;2.43;1.30;;;1.70;99.90;;;;;;4996846;28;20026;-86
2022/02/16 01:38:20;;;;;;;1.73;1.00;;;1.80;99.90;;;;;;5014066;28;20050;-87
2022/02/16 01:40:46;;;;;;;1.23;1.10;;;1.80;99.90;;;;;;5013958;28;20149;-86
2022/02/16 01:43:11;;;;;;;2.27;1.10;;;1.90;99.90;;;;;;4996081;28;20129;-86
2022/02/16 01:45:37;;;;;;;3.07;1.17;;;1.90;99.90;;;;;;5013935;28;20653;-86
2022/02/16 01:48:03;;;;;;;2.63;1.17;;;1.90;99.90;;;;;;4992783;28;20042;-86
2022/02/16 01:50:29;;;;;;;3.67;1.10;;;2.00;99.90;;;;;;4994323;28;20033;-86
2022/02/16 01:52:55;;;;;;;1.23;1.03;;;2.00;99.90;;;;;;4994127;28;20522;-86
2022/02/16 01:55:21;;;;;;;3.67;1.23;;;2.10;99.90;;;;;;5011724;28;20096;-86
2022/02/16 01:57:49;;;;;;;1.83;1.20;;;2.10;99.90;;;;;;5013977;28;20464;-86
2022/02/16 02:00:15;;;;;;;2.67;1.00;;;2.20;99.90;;;;;;5013661;28;20360;-86
2022/02/16 02:02:42;;;;;;;1.23;0.97;;;2.20;99.90;;;;;;4996148;28;20368;-86
2022/02/16 02:05:08;;;;;;;1.67;1.00;;;2.20;99.90;;;;;;5013371;28;20034;-87
2022/02/16 02:07:36;;;;;;;3.80;1.20;;;2.20;99.90;;;;;;5013591;28;20051;-86
2022/02/16 02:10:03;;;;;;;1.43;0.97;;;2.20;99.90;;;;;;4996117;28;20029;-87
2022/02/16 02:12:29;;;;;;;2.17;1.10;;;2.20;99.90;;;;;;4996174;28;20132;-87
2022/02/16 02:14:54;;;;;;;1.37;1.00;;;2.20;99.90;;;;;;5013829;28;20097;-87
2022/02/16 02:17:20;;;;;;;2.67;1.00;;;2.10;99.90;;;;;;5013011;28;20034;-87
2022/02/16 02:19:46;;;;;;;2.70;1.10;;;2.10;99.90;;;;;;5013755;28;20478;-87
2022/02/16 02:22:11;;;;;;;2.60;1.10;;;2.10;99.90;;;;;;5013421;28;20034;-87
2022/02/16 02:24:37;;;;;;;4.07;1.10;;;2.10;99.90;;;;;;5013167;28;20093;-86
2022/02/16 02:27:04;;;;;;;1.90;1.00;;;2.00;99.90;;;;;;5013464;28;20033;-86
2022/02/16 02:29:31;;;;;;;1.40;1.00;;;2.00;99.90;;;;;;5013447;28;20025;-86
2022/02/16 02:31:57;;;;;;;1.23;0.93;;;1.90;99.90;;;;;;5013456;28;20018;-86
2022/02/16 02:34:23;;;;;;;4.53;1.00;;;1.90;99.90;;;;;;5012904;28;20022;-86
2022/02/16 02:36:49;;;;;;;1.63;1.03;;;1.90;99.90;;;;;;5013073;28;20033;-86
2022/02/16 02:39:14;;;;;;;1.20;0.90;;;1.90;99.90;;;;;;4995701;28;20099;-87
2022/02/16 02:41:40;;;;;;;2.10;1.00;;;1.80;99.90;;;;;;5013423;28;20026;-86
2022/02/16 02:44:06;;;;;;;3.53;1.03;;;1.80;99.90;;;;;;5013131;28;20501;-87
2022/02/16 02:46:31;;;;;;;1.37;1.10;;;1.80;99.90;;;;;;5008174;28;20037;-86
2022/02/16 02:48:57;;;;;;;2.60;1.47;;;1.80;99.90;;;;;;4993328;28;20502;-86
2022/02/16 02:51:23;;;;;;;0.90;0.80;;;1.80;99.90;;;;;;4993323;28;20526;-86
2022/02/16 02:53:48;;;;;;;1.50;1.10;;;1.70;99.90;;;;;;5000735;28;20076;-86
2022/02/16 02:56:14;;;;;;;2.00;0.93;;;1.70;99.90;;;;;;5012702;28;20097;-86
2022/02/16 02:58:40;;;;;;;2.97;0.90;;;1.80;99.90;;;;;;5012066;28;20119;-86
2022/02/16 03:01:06;;;;;;;2.10;0.90;;;1.80;99.90;;;;;;4995388;28;20030;-86
2022/02/16 03:03:35;;;;;;;2.20;1.10;;;1.80;99.90;;;;;;4994416;28;20049;-86
2022/02/16 03:06:02;;;;;;;2.63;1.00;;;1.80;99.90;;;;;;5012493;28;20045;-86
2022/02/16 03:08:27;;;;;;;1.20;1.10;;;1.80;99.90;;;;;;5012320;28;20044;-85
2022/02/16 03:10:53;;;;;;;1.20;0.87;;;1.80;99.90;;;;;;5012573;28;20018;-86
2022/02/16 03:13:21;;;;;;;1.80;0.90;;;1.80;99.90;;;;;;5011997;28;20434;-86
2022/02/16 03:15:48;;;;;;;2.33;0.90;;;1.80;99.90;;;;;;5012281;28;20037;-85
2022/02/16 03:18:14;;;;;;;1.43;0.90;;;1.80;99.90;;;;;;5011812;28;20022;-85
2022/02/16 03:20:40;;;;;;;0.90;0.80;;;1.80;99.90;;;;;;5012101;28;20414;-84
2022/02/16 03:23:06;;;;;;;0.90;0.87;;;1.70;99.90;;;;;;5011767;28;20034;-85
2022/02/16 03:25:31;;;;;;;1.40;0.80;;;1.80;99.90;;;;;;5011964;28;20030;-86
2022/02/16 03:27:57;;;;;;;2.07;0.97;;;1.70;99.90;;;;;;5011847;28;20033;-85
2022/02/16 03:30:22;;;;;;;2.20;1.20;;;1.70;99.90;;;;;;5010620;28;20052;-85
2022/02/16 03:32:48;;;;;;;1.33;0.90;;;1.70;99.90;;;;;;4993605;28;20030;-85
2022/02/16 03:35:14;;;;;;;1.43;0.90;;;1.70;99.90;;;;;;5011130;28;20034;-85
2022/02/16 03:37:39;;;;;;;1.00;0.90;;;1.70;99.90;;;;;;5011300;28;20026;-85
2022/02/16 03:40:06;;;;;;;1.60;1.37;;;1.70;99.90;;;;;;5011477;28;20477;-86
2022/02/16 03:42:32;;;;;;;1.37;0.90;;;1.70;99.90;;;;;;5011519;28;20457;-85
2022/02/16 03:44:57;;;;;;;1.00;0.90;;;1.70;99.90;;;;;;5011591;28;20110;-85
2022/02/16 03:47:23;;;;;;;2.60;1.10;;;1.70;99.90;;;;;;5010605;28;20037;-85
2022/02/16 03:49:48;;;;;;;2.03;1.17;;;1.70;99.90;;;;;;5011588;28;20064;-86
2022/02/16 03:52:14;;;;;;;1.97;1.10;;;1.70;99.90;;;;;;5011812;28;20065;-86
2022/02/16 03:54:39;;;;;;;1.20;1.10;;;1.70;99.90;;;;;;5011582;28;20056;-86
2022/02/16 03:57:05;;;;;;;1.30;0.97;;;1.70;99.90;;;;;;4994261;28;20412;-85
2022/02/16 03:59:31;;;;;;;1.80;1.00;;;1.70;99.90;;;;;;5011393;28;20030;-85
2022/02/16 04:02:01;;;;;;;2.63;1.20;;;1.60;99.90;;;;;;4993774;28;20075;-85
2022/02/16 04:04:29;;;;;;;1.20;0.90;;;1.60;99.90;;;;;;5011723;28;20026;-85
2022/02/16 04:06:55;;;;;;;5.60;1.20;;;1.60;99.90;;;;;;5011566;28;20061;-85
2022/02/16 04:09:20;;;;;;;1.93;1.10;;;1.60;99.90;;;;;;5011396;28;20057;-85
2022/02/16 04:11:46;;;;;;;3.47;1.07;;;1.60;99.90;;;;;;5011668;28;20033;-85
2022/02/16 04:14:11;;;;;;;1.90;1.03;;;1.60;99.90;;;;;;5011228;28;20024;-85
2022/02/16 04:16:37;;;;;;;1.20;1.00;;;1.50;99.90;;;;;;5011196;28;20030;-85
2022/02/16 04:19:02;;;;;;;3.43;1.00;;;1.50;99.90;;;;;;4993045;28;20045;-85
2022/02/16 04:21:28;;;;;;;1.30;1.03;;;1.50;99.90;;;;;;5011599;28;20136;-85
2022/02/16 04:23:54;;;;;;;1.90;1.07;;;1.50;99.90;;;;;;5010888;28;20096;-85
2022/02/16 04:26:19;;;;;;;3.23;1.10;;;1.60;99.90;;;;;;5011258;28;20029;-85
2022/02/16 04:28:45;;;;;;;3.23;1.23;;;1.60;99.90;;;;;;5010898;28;20029;-85
2022/02/16 04:31:10;;;;;;;1.80;1.10;;;1.60;99.90;;;;;;5011392;28;20068;-85
2022/02/16 04:33:36;;;;;;;1.83;1.10;;;1.60;99.90;;;;;;5011124;28;20069;-85
2022/02/16 04:36:02;;;;;;;2.20;1.10;;;1.60;99.90;;;;;;5011355;28;20030;-85
2022/02/16 04:38:27;;;;;;;2.67;1.10;;;1.60;99.90;;;;;;5010479;28;20442;-86
2022/02/16 04:40:53;;;;;;;1.37;1.00;;;1.60;99.90;;;;;;4995854;28;20026;-85
2022/02/16 04:43:18;;;;;;;3.80;1.23;;;1.70;99.90;;;;;;5014289;28;20021;-85
2022/02/16 04:45:44;;;;;;;2.97;1.50;;;1.70;99.90;;;;;;5008982;28;20472;-85
2022/02/16 04:48:10;;;;;;;3.90;1.70;;;1.70;99.90;;;;;;5003956;28;20089;-84
2022/02/16 04:50:35;;;;;;;2.17;1.20;;;1.70;99.90;;;;;;5013476;28;20437;-85
2022/02/16 04:53:01;;;;;;;1.33;1.10;;;1.70;99.90;;;;;;5014350;28;20030;-85
2022/02/16 04:55:27;;;;;;;1.87;1.00;;;1.70;99.90;;;;;;5014576;28;20472;-85
2022/02/16 04:57:53;;;;;;;2.00;1.20;;;1.70;99.90;;;;;;5013191;28;20025;-86
2022/02/16 05:00:20;;;;;;;1.97;1.30;;;1.70;99.90;;;;;;4997045;28;20030;-85
2022/02/16 05:02:46;;;;;;;1.50;1.10;;;1.70;99.90;;;;;;5014667;28;20559;-86
2022/02/16 05:05:12;;;;;;;7.73;1.50;;;1.70;99.90;;;;;;5014692;28;20052;-86
2022/02/16 05:07:38;;;;;;;2.63;1.00;;;1.70;99.90;;;;;;5014339;28;20030;-85
2022/02/16 05:10:04;;;;;;;1.07;0.93;;;1.80;99.90;;;;;;4996618;28;20025;-85
2022/02/16 05:12:35;;;;;;;3.80;1.13;;;1.80;99.90;;;;;;4995489;28;20475;-85
2022/02/16 05:15:01;;;;;;;2.47;1.00;;;1.80;99.90;;;;;;5001862;28;20033;-84
2022/02/16 05:17:27;;;;;;;1.70;1.10;;;1.80;99.90;;;;;;5001781;28;20629;-83
2022/02/16 05:19:53;;;;;;;1.97;1.10;;;1.80;99.90;;;;;;5010085;28;20071;-83
2022/02/16 05:22:19;;;;;;;1.60;1.13;;;1.90;99.90;;;;;;5010177;28;20471;-82
2022/02/16 05:24:44;;;;;;;1.73;1.23;;;1.80;99.90;;;;;;5012245;28;20100;-83
2022/02/16 05:27:10;;;;;;;1.70;1.00;;;1.90;99.90;;;;;;5011752;28;20497;-80
2022/02/16 05:29:35;;;;;;;2.57;1.03;;;1.90;99.90;;;;;;5008596;28;20029;-80
2022/02/16 05:32:01;;;;;;;1.53;1.00;;;1.90;99.90;;;;;;4995509;28;20029;-80
2022/02/16 05:34:27;;;;;;;2.50;1.10;;;2.00;99.90;;;;;;5010245;28;20026;-80
2022/02/16 05:36:52;;;;;;;2.20;1.00;;;2.00;99.90;;;;;;5010010;28;20018;-80
2022/02/16 05:39:18;;;;;;;3.70;1.13;;;2.00;99.90;;;;;;5009796;28;20046;-81
2022/02/16 05:41:44;;;;;;;1.33;1.13;;;2.00;99.90;;;;;;5012844;28;20018;-80
2022/02/16 05:44:09;;;;;;;2.33;1.10;;;2.00;99.90;;;;;;5012764;28;20053;-80
2022/02/16 05:46:35;;;;;;;1.77;1.00;;;2.00;99.90;;;;;;5007129;28;20030;-80
2022/02/16 05:49:01;;;;;;;3.93;1.10;;;2.00;99.90;;;;;;4994196;28;20042;-80
2022/02/16 05:51:27;;;;;;;3.57;1.30;;;2.00;99.90;;;;;;5011297;28;20018;-80
2022/02/16 05:53:52;;;;;;;1.87;1.20;;;2.00;99.90;;;;;;5012105;28;20475;-81
2022/02/16 05:56:18;;;;;;;0.80;0.80;;;2.00;99.90;;;;;;5012144;28;20037;-80
2022/02/16 05:58:44;;;;;;;2.03;1.00;;;2.00;99.90;;;;;;5009010;28;20030;-80
2022/02/16 06:01:09;;;;;;;1.13;1.00;;;2.00;99.90;;;;;;5013215;28;20040;-81
2022/02/16 06:03:35;;;;;;;2.10;1.17;;;2.10;99.90;;;;;;5011739;28;20053;-80
2022/02/16 06:06:01;;;;;;;2.00;1.30;;;2.10;99.90;;;;;;5012543;28;20092;-80
2022/02/16 06:08:26;;;;;;;5.50;1.10;;;2.10;99.90;;;;;;5011850;28;20022;-81
2022/02/16 06:10:54;;;;;;;1.83;1.10;;;2.20;99.90;;;;;;5010417;28;20093;-80
2022/02/16 06:13:20;;;;;;;2.07;1.40;;;2.10;99.90;;;;;;5011950;28;20022;-81
2022/02/16 06:15:45;;;;;;;3.23;1.10;;;2.10;99.90;;;;;;5010361;28;20025;-81
2022/02/16 06:18:11;;;;;;;1.73;0.93;;;2.20;99.90;;;;;;5008826;28;20040;-81
2022/02/16 06:20:36;;;;;;;2.33;1.10;;;2.20;99.90;;;;;;5012088;28;20104;-81
2022/02/16 06:23:02;;;;;;;1.33;0.90;;;2.20;99.90;;;;;;5012975;28;20045;-81
2022/02/16 06:25:28;;;;;;;3.50;1.00;;;2.20;99.90;;;;;;5012008;28;20253;-81
2022/02/16 06:27:54;;;;;;;5.13;1.70;;;2.20;99.90;;;;;;5008490;28;20049;-81
2022/02/16 06:30:20;;;;;;;5.53;1.17;;;2.30;99.90;;;;;;5011444;28;20084;-82
2022/02/16 06:32:45;;;;;;;4.20;1.10;;;2.30;99.90;;;;;;5011876;28;20423;-81
2022/02/16 06:35:14;;;;;;;4.50;0.93;;;2.30;99.90;;;;;;5012607;28;20477;-84
2022/02/16 06:37:40;;;;;;;7.93;1.63;;;2.30;99.90;;;;;;5012064;28;20080;-82
2022/02/16 06:40:09;;;;;;;1.87;0.90;;;2.30;99.90;;;;;;5009347;28;20057;-82
2022/02/16 06:42:38;;;;;;;6.60;2.30;;;2.30;99.90;;;;;;5012099;28;20026;-81
2022/02/16 06:45:04;;;;;;;2.13;1.10;;;2.30;99.90;;;;;;5008438;28;20038;-82
2022/02/16 06:47:29;;;;;;;6.10;1.23;;;2.40;99.90;;;;;;5009328;28;20084;-82
2022/02/16 06:49:55;;;;;;;5.20;1.37;;;2.40;99.90;;;;;;5008044;28;20034;-82
2022/02/16 06:52:21;;;;;;;3.17;1.10;;;2.40;99.90;;;;;;5008785;28;20387;-82
2022/02/16 06:54:46;;;;;;;1.70;1.03;;;2.40;99.90;;;;;;5008763;28;20030;-82
2022/02/16 06:57:12;;;;;;;1.83;1.07;;;2.40;99.90;;;;;;5009209;28;20042;-82
2022/02/16 06:59:37;;;;;;;2.47;1.00;;;2.40;99.90;;;;;;5009154;28;20038;-82
2022/02/16 07:02:03;;;;;;;2.70;1.20;;;2.40;99.90;;;;;;5009516;28;20033;-82
2022/02/16 07:04:29;;;;;;;2.37;1.10;;;2.40;99.90;;;;;;5008547;28;20029;-82
2022/02/16 07:06:55;;;;;;;2.20;1.10;;;2.50;99.90;;;;;;5008853;28;20030;-82
2022/02/16 07:09:20;;;;;;;2.43;1.10;;;2.50;99.90;;;;;;4991309;28;20770;-82
2022/02/16 07:11:47;;;;;;;5.73;1.00;;;2.60;99.90;;;;;;4991496;28;20029;-82
2022/02/16 07:14:12;;;;;;;7.97;1.23;;;2.70;99.90;;;;;;5008088;28;20072;-82
2022/02/16 07:16:38;;;;;;;3.03;1.13;;;2.70;99.90;;;;;;4988054;28;20666;-82
2022/02/16 07:19:04;;;;;;;4.60;1.20;;;2.70;99.90;;;;;;5006802;28;20030;-81
2022/02/16 07:21:29;;;;;;;2.83;1.20;;;2.80;99.90;;;;;;4992465;28;20818;-82
2022/02/16 07:23:55;;;;;;;4.40;1.10;;;2.80;99.90;;;;;;5003422;28;20045;-82
2022/02/16 07:26:23;;;;;;;4.60;1.40;;;2.90;99.90;;;;;;5007368;28;20462;-81
2022/02/16 07:28:48;;;;;;;2.73;1.00;;;2.90;99.90;;;;;;5007225;28;20160;-82
2022/02/16 07:31:15;;;;;;;2.83;1.10;;;3.00;99.90;;;;;;5007076;28;20235;-79
2022/02/16 07:33:40;;;;;;;2.97;1.00;;;3.00;99.90;;;;;;5007712;28;20034;-79
2022/02/16 07:36:06;;;;;;;7.77;1.20;;;3.10;99.90;;;;;;5007019;28;20033;-79
2022/02/16 07:38:31;;;;;;;3.57;1.27;;;3.10;99.90;;;;;;4988343;28;20077;-79
2022/02/16 07:40:59;;;;;;;1.97;1.10;;;3.20;99.90;;;;;;4988624;28;20033;-79
2022/02/16 07:43:25;;;;;;;1.87;1.10;;;3.20;99.90;;;;;;5002574;28;20546;-79
2022/02/16 07:45:51;;;;;;;5.50;1.10;;;3.30;99.90;;;;;;4988644;28;20038;-79
2022/02/16 07:48:17;;;;;;;5.80;1.40;;;3.40;99.90;;;;;;5007489;28;20475;-79
2022/02/16 07:50:42;;;;;;;1.77;1.10;;;3.50;99.90;;;;;;5006898;28;20542;-79
2022/02/16 07:53:11;;;;;;;2.60;1.40;;;3.60;99.90;;;;;;5006120;28;20053;-79
2022/02/16 07:55:37;;;;;;;2.93;1.50;;;3.70;99.90;;;;;;4989960;28;20022;-79
2022/02/16 07:58:04;;;;;;;5.70;2.70;;;3.80;99.90;;;;;;5007763;28;20034;-78
2022/02/16 08:00:30;;;;;;;5.00;2.37;;;4.00;99.90;;;;;;5007430;28;20378;-79
2022/02/16 08:02:55;;;;;;;5.20;2.37;;;4.10;99.90;;;;;;5007318;28;20032;-79
2022/02/16 08:05:21;;;;;;;3.20;2.13;;;4.30;99.90;;;;;;5011691;28;20030;-78
2022/02/16 08:07:47;;;;;;;4.63;1.97;;;4.30;99.90;;;;;;5007886;28;20029;-78
2022/02/16 08:10:12;;;;;;;9.03;1.70;;;4.50;99.90;;;;;;5008628;28;20038;-79
2022/02/16 08:12:46;;;;;;;8.13;2.30;;;4.50;99.90;;;;;;4990182;28;20025;-80
2022/02/16 08:15:12;;;;;;;9.07;2.43;;;4.60;99.90;;;;;;5011475;28;20088;-80
2022/02/16 08:17:41;;;;;;;4.70;2.23;;;4.60;99.90;;;;;;4996907;28;20060;-79
2022/02/16 08:20:09;;;;;;;4.60;2.10;;;4.70;99.90;;;;;;5013563;28;20475;-79
2022/02/16 08:22:34;;;;;;;9.90;2.07;;;4.80;99.90;;;;;;5014236;28;20062;-79
2022/02/16 08:25:01;;;;;;;3.93;1.60;;;4.90;99.90;;;;;;5015224;28;20068;-78
2022/02/16 08:27:26;;;;;;;4.77;1.80;;;5.00;99.90;;;;;;5015688;28;20030;-79
2022/02/16 08:29:52;;;;;;;3.80;1.57;;;5.10;99.90;;;;;;5015405;28;20084;-79
2022/02/16 08:32:18;;;;;;;4.20;1.70;;;5.20;99.90;;;;;;5014640;28;20025;-78
2022/02/16 08:34:43;;;;;;;2.23;1.33;;;5.30;99.90;;;;;;5015102;28;20109;-79
2022/02/16 08:37:09;;;;;;;2.37;1.20;;;5.40;99.90;;;;;;4998464;28;20034;-79
2022/02/16 08:39:34;;;;;;;3.53;1.20;;;5.40;99.90;;;;;;5014168;28;20394;-79
2022/02/16 08:42:00;;;;;;;2.13;1.03;;;5.60;99.90;;;;;;5014635;28;20125;-79
2022/02/16 08:44:25;;;;;;;3.07;1.40;;;5.70;99.90;;;;;;5011798;28;20030;-79
2022/02/16 08:46:51;;;;;;;2.47;1.20;;;5.70;99.90;;;;;;5014380;28;20590;-79
2022/02/16 08:49:17;;;;;;;3.80;1.30;;;5.80;99.90;;;;;;5014571;28;20022;-79
2022/02/16 08:51:43;;;;;;;2.80;1.60;;;5.90;99.90;;;;;;5014600;28;20124;-79
2022/02/16 08:54:09;;;;;;;5.77;1.63;;;5.90;99.90;;;;;;5014341;28;20030;-79
2022/02/16 08:56:35;;;;;;;5.97;1.60;;;6.00;99.90;;;;;;4996578;28;20049;-79
2022/02/16 08:59:02;;;;;;;2.97;1.40;;;6.10;99.90;;;;;;5015061;28;20060;-79
2022/02/16 09:01:32;;;;;;;2.10;1.10;;;6.10;99.90;;;;;;5013888;28;20058;-79
2022/02/16 09:04:02;;;;;;;3.03;1.40;;;6.20;99.90;;;;;;5013090;28;20026;-79
2022/02/16 09:06:29;;;;;;;4.53;2.43;;;6.20;99.90;;;;;;5013132;28;20060;-79
2022/02/16 09:08:55;;;;;;;3.13;1.53;;;6.20;99.90;;;;;;5014215;28;20034;-79
2022/02/16 09:11:20;;;;;;;2.57;1.40;;;6.30;99.90;;;;;;5014130;28;20083;-80
2022/02/16 09:13:46;;;;;;;3.23;1.00;;;6.20;99.90;;;;;;5013748;28;20021;-80
2022/02/16 09:16:12;;;;;;;7.67;1.60;;;6.20;99.90;;;;;;5015437;28;20036;-80
2022/02/16 09:18:38;;;;;;;4.03;1.20;;;6.30;99.90;;;;;;5015609;28;20030;-79
2022/02/16 09:21:05;;;;;;;3.67;1.30;;;6.30;99.90;;;;;;5015252;28;20034;-80
2022/02/16 09:23:35;;;;;;;1.70;1.10;;;6.50;99.90;;;;;;5013836;28;20026;-79
2022/02/16 09:26:02;;;;;;;4.43;1.70;;;6.60;99.90;;;;;;5014123;28;20029;-79
2022/02/16 09:28:29;;;;;;;4.10;1.20;;;6.60;99.90;;;;;;5011799;28;20026;-79
2022/02/16 09:30:56;;;;;;;2.67;1.00;;;6.60;99.90;;;;;;5011386;28;20121;-79
2022/02/16 09:33:22;;;;;;;3.07;1.03;;;6.70;99.90;;;;;;4992528;28;20686;-79
2022/02/16 09:35:48;;;;;;;2.10;1.10;;;6.80;99.90;;;;;;5012021;28;20049;-79
2022/02/16 09:38:14;;;;;;;3.70;1.00;;;6.80;99.90;;;;;;5011249;28;20026;-79
2022/02/16 09:40:45;;;;;;;4.67;1.10;;;6.90;99.90;;;;;;5010500;28;20088;-79
2022/02/16 09:43:13;;;;;;;1.23;0.87;;;7.00;99.90;;;;;;5008395;28;20108;-79
2022/02/16 09:45:39;;;;;;;3.13;1.00;;;7.20;99.90;;;;;;4991858;28;20088;-79
2022/02/16 09:48:05;;;;;;;4.67;1.17;;;7.30;99.90;;;;;;5011500;28;20463;-79
2022/02/16 09:50:31;;;;;;;3.77;0.80;;;7.30;99.90;;;;;;5011451;28;20030;-79
2022/02/16 09:52:57;;;;;;;5.10;1.40;;;7.40;99.90;;;;;;5010638;28;20049;-80
2022/02/16 09:55:23;;;;;;;1.67;1.00;;;7.30;99.90;;;;;;5011287;28;20471;-79
2022/02/16 09:57:49;;;;;;;1.40;0.90;;;7.50;99.90;;;;;;4993123;28;20084;-79
2022/02/16 10:00:15;;;;;;;4.97;0.90;;;7.60;99.90;;;;;;5010441;28;20033;-79
2022/02/16 10:02:43;;;;;;;2.37;0.90;;;7.60;99.90;;;;;;4993685;28;20038;-79
2022/02/16 10:05:10;;;;;;;3.57;0.93;;;7.50;99.90;;;;;;4993827;28;20038;-79
2022/02/16 10:07:43;;;;;;;1.50;0.87;;;7.70;99.90;;;;;;5011453;28;20704;-75
2022/02/16 10:10:18;;;;;;;4.43;1.33;;;7.70;99.90;;;;;;5009510;28;20033;-77
2022/02/16 10:12:46;;;;;;;1.00;0.83;;;7.70;99.90;;;;;;5007849;28;20383;-77
2022/02/16 10:15:15;;;;;;;1.57;0.90;;;7.70;99.90;;;;;;5007741;28;20044;-76
2022/02/16 10:17:40;;;;;;;1.23;0.90;;;7.80;99.90;;;;;;5007856;28;20061;-77
2022/02/16 10:20:09;;;;;;;2.27;1.07;;;7.90;99.90;;;;;;5007769;28;20084;-66
2022/02/16 10:22:48;;;;;;;4.40;0.90;;;7.90;99.90;;;;;;5008389;28;20529;-82
2022/02/16 10:25:28;;;;;;;3.10;1.00;;;8.00;99.90;;;;;;5008488;28;20030;-82
2022/02/16 10:28:04;;;;;;;2.27;0.90;;;8.20;99.90;;;;;;5008444;28;20414;-82
2022/02/16 10:30:31;;;;;;;2.50;0.80;;;8.30;99.90;;;;;;5008113;28;20049;-82
2022/02/16 10:33:22;;;;;;;5.37;1.20;;;8.50;99.90;;;;;;5007560;28;20131;-82
2022/02/16 10:35:57;;;;;;;5.13;1.17;;;8.70;99.90;;;;;;5005142;28;20034;-81
2022/02/16 10:38:23;;;;;;;2.83;0.88;;;8.70;99.90;;;;;;5007460;28;20398;-81
2022/02/16 10:40:59;;;;;;;0.87;0.83;;;8.70;99.90;;;;;;5009187;28;20034;-82
2022/02/16 10:43:37;;;;;;;1.57;0.90;;;8.70;99.90;;;;;;5011842;28;20120;-82
2022/02/16 10:46:14;;;;;;;2.90;0.90;;;8.60;99.90;;;;;;4995546;28;20050;-82
2022/02/16 10:48:41;;;;;;;0.50;0.50;;;8.60;99.90;;;;;;4998407;28;20185;-82
2022/02/16 10:51:16;;;;;;;1.20;0.90;;;8.50;99.90;;;;;;4994368;28;20530;-82
2022/02/16 10:53:42;;;;;;;1.02;0.77;;;8.50;99.90;;;;;;5011845;28;20022;-82
2022/02/16 10:56:07;;;;;;;1.33;0.87;;;8.60;99.90;;;;;;5012152;28;20060;-82
2022/02/16 10:58:33;;;;;;;3.70;0.80;;;8.70;99.90;;;;;;4994279;28;20360;-81
2022/02/16 11:01:00;;;;;;;1.00;0.80;;;8.70;99.90;;;;;;5011832;28;20033;-81
2022/02/16 11:03:29;;;;;;;2.10;0.63;;;8.60;99.90;;;;;;5011716;28;20740;-81
2022/02/16 11:05:57;;;;;;;1.00;0.80;;;8.70;99.90;;;;;;4994310;28;20080;-81
2022/02/16 11:08:25;;;;;;;1.03;0.80;;;8.80;99.90;;;;;;5011503;28;20534;-81
2022/02/16 11:10:51;;;;;;;0.60;0.60;;;8.90;99.90;;;;;;5009869;28;20087;-82
2022/02/16 11:13:24;;;;;;;0.73;0.70;;;9.00;99.90;;;;;;4984511;28;20125;-81
2022/02/16 11:15:51;;;;;;;1.23;0.70;;;9.00;99.90;;;;;;4998811;28;20022;-81
2022/02/16 11:18:20;;;;;;;0.60;0.60;;;9.00;99.90;;;;;;5006630;28;20029;-81
2022/02/16 11:21:06;;;;;;;0.43;0.43;;;9.10;99.90;;;;;;5002696;28;20105;-82
2022/02/16 11:23:42;;;;;;;;;;;9.00;99.90;;;;;;4984698;28;20058;-81
2022/02/16 11:26:37;;;;;;;1.55;0.60;;;8.90;99.90;;;;;;5007369;28;19955;-82
2022/02/16 11:29:25;;;;;;;0.60;0.60;;;9.00;99.90;;;;;;5011180;28;20087;-81
2022/02/16 11:31:52;;;;;;;1.00;0.80;;;9.00;99.90;;;;;;5011604;28;20057;-81
2022/02/16 11:34:21;;;;;;;0.90;0.70;;;8.90;99.90;;;;;;5010943;28;20037;-81
2022/02/16 11:36:49;;;;;;;1.20;0.80;;;8.80;99.90;;;;;;5010922;28;20030;-81
2022/02/16 11:39:46;;;;;;;0.63;0.63;;;8.80;99.90;;;;;;5011212;28;20041;-81
2022/02/16 11:42:37;;;;;;;2.33;0.50;;;8.80;99.90;;;;;;4994004;28;20026;-81
2022/02/16 11:45:05;;;;;;;2.10;0.50;;;8.70;99.90;;;;;;4992834;28;20018;-81
2022/02/16 11:47:34;;;;;;;0.50;0.50;;;8.60;99.90;;;;;;4993982;28;20038;-81
2022/02/16 11:50:25;;;;;;;0.67;0.57;;;8.70;99.90;;;;;;4992463;28;20904;-81
2022/02/16 11:52:51;;;;;;;1.80;0.60;;;8.60;99.90;;;;;;4991638;28;20033;-81
2022/02/16 11:55:33;;;;;;;0.50;0.50;;;8.50;99.90;;;;;;4991827;28;20033;-80
2022/02/16 11:58:08;;;;;;;0.70;0.60;;;8.60;99.90;;;;;;4995190;28;20053;-80
2022/02/16 12:00:59;;;;;;;0.60;0.60;;;8.70;99.90;;;;;;5011725;28;20032;-80
2022/02/16 12:03:35;;;;;;;0.80;0.60;;;8.60;99.90;;;;;;5006364;28;20054;-80
2022/02/16 12:06:04;;;;;;;0.50;0.50;;;8.70;99.90;;;;;;4999749;28;20034;-80
2022/02/16 12:09:04;;;;;;;1.50;0.60;;;8.60;99.90;;;;;;5008861;28;20563;-79
2022/02/16 12:11:30;;;;;;;1.10;0.60;;;8.80;99.90;;;;;;4991914;28;20384;-80
2022/02/16 12:14:02;;;;;;;1.40;0.60;;;8.80;99.90;;;;;;5009049;28;20147;-80
2022/02/16 12:16:42;;;;;;;0.73;0.70;;;8.80;99.90;;;;;;5008974;28;20021;-83
2022/02/16 12:19:19;;;;;;;0.50;0.50;;;8.90;99.90;;;;;;5006630;28;20669;-83
2022/02/16 12:21:53;;;;;;;0.77;0.50;;;8.90;99.90;;;;;;5007305;28;20038;-82
2022/02/16 12:24:26;;;;;;;0.60;0.60;;;9.00;99.90;;;;;;4999112;28;20029;-83
2022/02/16 12:27:02;;;;;;;1.13;0.60;;;8.90;99.90;;;;;;5003495;28;20061;-83
2022/02/16 12:29:30;;;;;;;0.50;0.50;;;8.80;99.90;;;;;;5005043;28;20014;-84
2022/02/16 12:31:58;;;;;;;0.67;0.60;;;8.90;99.90;;;;;;4985707;28;20039;-85
2022/02/16 12:34:28;;;;;;;0.67;0.50;;;8.90;99.90;;;;;;5003890;28;20100;-85
2022/02/16 12:37:09;;;;;;;0.73;0.70;;;8.90;99.90;;;;;;4989820;28;20072;-85
2022/02/16 12:39:36;;;;;;;0.50;0.50;;;8.90;99.90;;;;;;5006173;28;20026;-85
2022/02/16 12:42:03;;;;;;;1.20;0.67;;;9.00;99.90;;;;;;5007286;28;20084;-83
2022/02/16 12:44:31;;;;;;;2.40;0.90;;;9.00;99.90;;;;;;5007461;28;20021;-83
2022/02/16 12:46:57;;;;;;;1.57;0.80;;;9.10;99.90;;;;;;5000695;28;20034;-87
2022/02/16 12:49:26;;;;;;;1.47;0.70;;;9.10;99.90;;;;;;5002805;28;20025;-85
2022/02/16 12:51:54;;;;;;;0.87;0.57;;;9.10;99.90;;;;;;4989388;28;20390;-86
2022/02/16 12:54:22;;;;;;;0.60;0.60;;;9.20;99.90;;;;;;5007559;28;20033;-85
2022/02/16 12:56:56;;;;;;;0.50;0.50;;;9.30;99.90;;;;;;5007821;28;20038;-84
2022/02/16 12:59:23;;;;;;;0.60;0.60;;;9.30;99.90;;;;;;5005495;28;20026;-85